Time,TemperatureF,DewpointF,PressureIn,WindDirection,WindDirectionDegrees,WindSpeedMPH,WindSpeedGustMPH,Humidity,HourlyPrecipIn,Conditions,Clouds,dailyrainin,SoftwareType,DateUTC
2013-01-05 00:00:00,21.8,20.1,30.37,NNW,329,2.0,3.0,93,0.00,,BKN055,0.00,VWS V14.00,2013-01-05 05:00:00,
2013-01-05 00:02:00,21.8,20.1,30.37,NNW,329,2.0,3.0,93,0.00,,BKN055,0.00,VWS V14.00,2013-01-05 05:02:00,
2013-01-05 00:10:00,21.8,20.3,30.37,NNW,329,0.0,4.0,94,0.00,,BKN055,0.00,VWS V14.00,2013-01-05 05:10:00,
2013-01-05 00:12:00,21.8,20.3,30.37,NNW,329,0.0,4.0,94,0.00,,BKN055,0.00,VWS V14.00,2013-01-05 05:12:00,
2013-01-05 00:20:00,21.6,20.1,30.37,NNW,330,0.0,0.0,94,0.00,,BKN055,0.00,VWS V14.00,2013-01-05 05:20:00,
2013-01-05 00:22:00,21.6,20.1,30.37,NNW,330,0.0,0.0,94,0.00,,BKN055,0.00,VWS V14.00,2013-01-05 05:22:00,
2013-01-05 00:30:00,21.6,20.1,30.36,NNW,331,0.0,0.0,94,0.00,,BKN055,0.00,VWS V14.00,2013-01-05 05:30:00,
2013-01-05 00:32:00,21.6,20.1,30.36,NNW,331,0.0,0.0,94,0.00,,BKN055,0.00,VWS V14.00,2013-01-05 05:32:00,
2013-01-05 00:40:00,21.7,20.2,30.36,NNW,331,2.0,3.0,94,0.00,,BKN055,0.00,VWS V14.00,2013-01-05 05:40:00,
2013-01-05 00:42:00,21.7,20.2,30.36,NNW,331,2.0,3.0,94,0.00,,BKN055,0.00,VWS V14.00,2013-01-05 05:42:00,
2013-01-05 00:50:00,21.6,20.1,30.35,NNW,331,0.0,2.0,94,0.00,,BKN055,0.00,VWS V14.00,2013-01-05 05:50:00,
2013-01-05 00:52:00,21.6,20.1,30.35,NNW,331,0.0,2.0,94,0.00,,BKN055,0.00,VWS V14.00,2013-01-05 05:52:00,
2013-01-05 01:00:00,21.3,19.8,30.35,NNW,331,1.0,3.0,94,0.00,,BKN055,0.00,VWS V14.00,2013-01-05 06:00:00,
2013-01-05 01:02:00,21.3,19.9,30.35,NNW,331,1.0,3.0,94,0.00,,BKN055,0.00,VWS V14.00,2013-01-05 06:02:00,
2013-01-05 01:10:00,21.1,19.6,30.36,NNW,331,2.0,2.0,94,0.00,,BKN055,0.00,VWS V14.00,2013-01-05 06:10:00,
2013-01-05 01:12:00,21.1,19.6,30.36,NNW,331,2.0,2.0,94,0.00,,BKN055,0.00,VWS V14.00,2013-01-05 06:12:00,
2013-01-05 01:20:00,20.9,19.5,30.37,NNW,331,0.0,2.0,94,0.00,,BKN055,0.00,VWS V14.00,2013-01-05 06:20:00,
2013-01-05 01:22:00,20.9,19.5,30.37,NNW,331,0.0,2.0,94,0.00,,BKN055,0.00,VWS V14.00,2013-01-05 06:22:00,
2013-01-05 01:30:00,20.9,19.5,30.37,NNW,330,0.0,0.0,94,0.00,,BKN055,0.00,VWS V14.00,2013-01-05 06:30:00,
2013-01-05 01:32:00,20.9,19.5,30.37,NNW,330,0.0,0.0,94,0.00,,BKN055,0.00,VWS V14.00,2013-01-05 06:32:00,
2013-01-05 01:40:00,20.8,19.4,30.38,NNW,331,0.0,0.0,94,0.00,,BKN055,0.00,VWS V14.00,2013-01-05 06:40:00,
2013-01-05 01:42:00,20.8,19.4,30.38,NNW,331,0.0,0.0,94,0.00,,BKN055,0.00,VWS V14.00,2013-01-05 06:42:00,
2013-01-05 01:50:00,20.4,19.0,30.38,NNW,337,4.0,4.0,94,0.00,,BKN055,0.00,VWS V14.00,2013-01-05 06:50:00,
2013-01-05 01:52:00,20.4,19.0,30.38,NNW,337,4.0,4.0,94,0.00,,BKN055,0.00,VWS V14.00,2013-01-05 06:52:00,
2013-01-05 02:00:00,20.5,19.0,30.38,NNW,339,0.0,4.0,94,0.00,,BKN055,0.00,VWS V14.00,2013-01-05 07:00:00,
2013-01-05 02:02:00,20.5,19.0,30.38,NNW,339,0.0,4.0,94,0.00,,BKN055,0.00,VWS V14.00,2013-01-05 07:02:00,
2013-01-05 02:10:00,20.4,19.0,30.37,NNW,340,1.0,3.0,94,0.00,,BKN055,0.00,VWS V14.00,2013-01-05 07:10:00,
2013-01-05 02:12:00,20.4,19.0,30.37,NNW,340,1.0,3.0,94,0.00,,BKN055,0.00,VWS V14.00,2013-01-05 07:12:00,
2013-01-05 02:20:00,20.5,19.0,30.38,NNW,336,3.0,3.0,94,0.00,,BKN055,0.00,VWS V14.00,2013-01-05 07:20:00,
2013-01-05 02:22:00,20.5,19.0,30.38,NNW,336,3.0,3.0,94,0.00,,BKN055,0.00,VWS V14.00,2013-01-05 07:22:00,
2013-01-05 02:30:00,20.4,19.0,30.38,NNW,331,2.0,3.0,94,0.00,,BKN055,0.00,VWS V14.00,2013-01-05 07:30:00,
2013-01-05 02:32:00,20.4,19.0,30.38,NNW,331,2.0,3.0,94,0.00,,BKN055,0.00,VWS V14.00,2013-01-05 07:32:00,
2013-01-05 02:40:00,20.2,18.8,30.38,NNW,331,2.0,3.0,94,0.00,,BKN055,0.00,VWS V14.00,2013-01-05 07:40:00,
2013-01-05 02:42:00,20.2,18.8,30.38,NNW,331,2.0,3.0,94,0.00,,BKN055,0.00,VWS V14.00,2013-01-05 07:42:00,
2013-01-05 02:50:00,20.0,18.5,30.38,NNW,331,0.0,3.0,94,0.00,,BKN055,0.00,VWS V14.00,2013-01-05 07:50:00,
2013-01-05 02:52:00,20.0,18.5,30.38,NNW,331,0.0,3.0,94,0.00,,BKN055,0.00,VWS V14.00,2013-01-05 07:52:00,
2013-01-05 03:00:00,20.2,18.8,30.39,NNW,331,1.0,2.0,94,0.00,,BKN055,0.00,VWS V14.00,2013-01-05 08:00:00,
2013-01-05 03:02:00,20.2,18.8,30.39,NNW,331,1.0,2.0,94,0.00,,BKN055,0.00,VWS V14.00,2013-01-05 08:02:00,
2013-01-05 03:10:00,20.0,18.5,30.38,NNW,330,3.0,4.0,94,0.00,,BKN055,0.00,VWS V14.00,2013-01-05 08:10:00,
2013-01-05 03:12:00,20.0,18.5,30.38,NNW,330,3.0,4.0,94,0.00,,BKN055,0.00,VWS V14.00,2013-01-05 08:12:00,
2013-01-05 03:20:00,20.1,18.6,30.39,NNW,331,1.0,4.0,94,0.00,,BKN055,0.00,VWS V14.00,2013-01-05 08:20:00,
2013-01-05 03:22:00,20.1,18.6,30.39,NNW,331,1.0,4.0,94,0.00,,BKN055,0.00,VWS V14.00,2013-01-05 08:22:00,
2013-01-05 03:30:00,19.7,18.3,30.39,NNW,331,2.0,3.0,94,0.00,,BKN055,0.00,VWS V14.00,2013-01-05 08:30:00,
2013-01-05 03:32:00,19.7,18.3,30.39,NNW,331,2.0,3.0,94,0.00,,BKN055,0.00,VWS V14.00,2013-01-05 08:32:00,
2013-01-05 03:40:00,19.7,18.3,30.38,NNW,331,2.0,3.0,94,0.00,,BKN055,0.00,VWS V14.00,2013-01-05 08:40:00,
2013-01-05 03:42:00,19.7,18.3,30.38,NNW,331,2.0,3.0,94,0.00,,BKN055,0.00,VWS V14.00,2013-01-05 08:42:00,
2013-01-05 03:50:00,19.7,18.3,30.38,NNW,331,2.0,3.0,94,0.00,,BKN055,0.00,VWS V14.00,2013-01-05 08:50:00,
2013-01-05 03:52:00,19.7,18.3,30.38,NNW,331,2.0,3.0,94,0.00,,BKN055,0.00,VWS V14.00,2013-01-05 08:52:00,
2013-01-05 04:00:00,19.4,17.7,30.38,NNW,332,3.0,3.0,93,0.00,,BKN055,0.00,VWS V14.00,2013-01-05 09:00:00,
2013-01-05 04:02:00,19.4,17.7,30.38,NNW,332,3.0,3.0,93,0.00,,BKN055,0.00,VWS V14.00,2013-01-05 09:02:00,
2013-01-05 04:10:00,19.4,19.4,30.38,NNW,331,0.0,3.0,100,0.00,,BKN055,0.00,VWS V14.00,2013-01-05 09:10:00,
2013-01-05 04:12:00,19.4,19.4,30.38,NNW,331,0.0,3.0,100,0.00,,BKN055,0.00,VWS V14.00,2013-01-05 09:12:00,
2013-01-05 04:20:00,19.5,18.1,30.39,NNW,330,2.0,2.0,94,0.00,,BKN055,0.00,VWS V14.00,2013-01-05 09:20:00,
2013-01-05 04:22:00,19.5,18.1,30.39,NNW,330,2.0,2.0,94,0.00,,BKN055,0.00,VWS V14.00,2013-01-05 09:22:00,
2013-01-05 04:30:00,19.7,18.3,30.38,NNW,331,0.0,3.0,94,0.00,,BKN055,0.00,VWS V14.00,2013-01-05 09:30:00,
2013-01-05 04:32:00,19.7,18.3,30.38,NNW,331,0.0,3.0,94,0.00,,BKN055,0.00,VWS V14.00,2013-01-05 09:32:00,
2013-01-05 04:40:00,19.4,18.0,30.38,NNW,333,0.0,0.0,94,0.00,,BKN055,0.00,VWS V14.00,2013-01-05 09:40:00,
2013-01-05 04:42:00,19.4,18.0,30.38,NNW,333,0.0,0.0,94,0.00,,BKN055,0.00,VWS V14.00,2013-01-05 09:42:00,
2013-01-05 04:50:00,19.2,17.5,30.39,NNW,333,0.0,0.0,93,0.00,,BKN055,0.00,VWS V14.00,2013-01-05 09:50:00,
2013-01-05 04:52:00,19.2,17.5,30.39,NNW,333,0.0,0.0,93,0.00,,BKN055,0.00,VWS V14.00,2013-01-05 09:52:00,
2013-01-05 05:00:00,19.1,17.7,30.39,NNW,333,0.0,0.0,94,0.00,,BKN055,0.00,VWS V14.00,2013-01-05 10:00:00,
2013-01-05 05:02:00,19.1,17.7,30.39,NNW,333,0.0,0.0,94,0.00,,BKN055,0.00,VWS V14.00,2013-01-05 10:02:00,
2013-01-05 05:10:00,18.9,17.5,30.39,NNW,333,0.0,0.0,94,0.00,,BKN055,0.00,VWS V14.00,2013-01-05 10:10:00,
2013-01-05 05:12:00,18.9,17.5,30.39,NNW,333,0.0,0.0,94,0.00,,BKN055,0.00,VWS V14.00,2013-01-05 10:12:00,
2013-01-05 05:20:00,18.6,16.9,30.39,NNW,333,2.0,3.0,93,0.00,,BKN055,0.00,VWS V14.00,2013-01-05 10:20:00,
2013-01-05 05:22:00,18.6,16.9,30.39,NNW,333,2.0,3.0,93,0.00,,BKN055,0.00,VWS V14.00,2013-01-05 10:22:00,
2013-01-05 05:30:00,18.5,16.8,30.39,NNW,333,0.0,3.0,93,0.00,,BKN055,0.00,VWS V14.00,2013-01-05 10:30:00,
2013-01-05 05:32:00,18.5,16.8,30.39,NNW,333,0.0,3.0,93,0.00,,BKN055,0.00,VWS V14.00,2013-01-05 10:32:00,
2013-01-05 05:40:00,18.5,17.1,30.39,NNW,331,0.0,3.0,94,0.00,,BKN055,0.00,VWS V14.00,2013-01-05 10:40:00,
2013-01-05 05:42:00,18.5,17.1,30.39,NNW,331,0.0,3.0,94,0.00,,BKN055,0.00,VWS V14.00,2013-01-05 10:42:00,
2013-01-05 05:50:00,18.4,17.0,30.39,NNW,332,2.0,2.0,94,0.00,,BKN055,0.00,VWS V14.00,2013-01-05 10:50:00,
2013-01-05 05:52:00,18.4,17.0,30.39,NNW,332,2.0,2.0,94,0.00,,BKN055,0.00,VWS V14.00,2013-01-05 10:52:00,
2013-01-05 06:00:00,18.1,16.4,30.39,NNW,334,0.0,3.0,93,0.00,,BKN055,0.00,VWS V14.00,2013-01-05 11:00:00,
2013-01-05 06:02:00,18.1,16.4,30.39,NNW,334,0.0,3.0,93,0.00,,BKN055,0.00,VWS V14.00,2013-01-05 11:02:00,
2013-01-05 06:10:00,18.1,16.4,30.39,NNW,333,0.0,3.0,93,0.00,,BKN055,0.00,VWS V14.00,2013-01-05 11:10:00,
2013-01-05 06:12:00,18.1,16.4,30.39,NNW,333,0.0,3.0,93,0.00,,BKN055,0.00,VWS V14.00,2013-01-05 11:12:00,
2013-01-05 06:20:00,17.9,16.2,30.39,NNW,333,1.0,2.0,93,0.00,,BKN055,0.00,VWS V14.00,2013-01-05 11:20:00,
2013-01-05 06:22:00,17.9,16.2,30.39,NNW,333,1.0,2.0,93,0.00,,BKN055,0.00,VWS V14.00,2013-01-05 11:22:00,
2013-01-05 06:30:00,17.9,16.5,30.40,NNW,333,0.0,1.0,94,0.00,,BKN055,0.00,VWS V14.00,2013-01-05 11:30:00,
2013-01-05 06:32:00,17.9,16.5,30.40,NNW,333,0.0,1.0,94,0.00,,BKN055,0.00,VWS V14.00,2013-01-05 11:32:00,
2013-01-05 06:40:00,17.8,16.1,30.39,NNW,333,0.0,2.0,93,0.00,,BKN055,0.00,VWS V14.00,2013-01-05 11:40:00,
2013-01-05 06:42:00,17.8,16.1,30.39,NNW,333,0.0,2.0,93,0.00,,BKN055,0.00,VWS V14.00,2013-01-05 11:42:00,
2013-01-05 06:50:00,17.6,15.9,30.40,NNW,333,0.0,0.0,93,0.00,,BKN055,0.00,VWS V14.00,2013-01-05 11:50:00,
2013-01-05 06:52:00,17.6,15.9,30.40,NNW,333,0.0,0.0,93,0.00,,BKN055,0.00,VWS V14.00,2013-01-05 11:52:00,
2013-01-05 07:00:00,17.5,15.8,30.40,NNW,332,2.0,3.0,93,0.00,,BKN055,0.00,VWS V14.00,2013-01-05 12:00:00,
2013-01-05 07:02:00,17.5,15.8,30.40,NNW,332,2.0,3.0,93,0.00,,BKN055,0.00,VWS V14.00,2013-01-05 12:02:00,
2013-01-05 07:10:00,17.6,16.2,30.40,NNW,330,1.0,3.0,94,0.00,,BKN055,0.00,VWS V14.00,2013-01-05 12:10:00,
2013-01-05 07:12:00,17.6,16.2,30.40,NNW,330,1.0,3.0,94,0.00,,BKN055,0.00,VWS V14.00,2013-01-05 12:12:00,
2013-01-05 07:20:00,17.4,15.7,30.39,NNW,331,1.0,3.0,93,0.00,,BKN055,0.00,VWS V14.00,2013-01-05 12:20:00,
2013-01-05 07:22:00,17.4,15.7,30.39,NNW,331,1.0,3.0,93,0.00,,BKN055,0.00,VWS V14.00,2013-01-05 12:22:00,
2013-01-05 07:30:00,17.3,15.6,30.39,NNW,331,2.0,3.0,93,0.00,,BKN055,0.00,VWS V14.00,2013-01-05 12:30:00,
2013-01-05 07:32:00,17.3,15.6,30.39,NNW,331,2.0,3.0,93,0.00,,BKN055,0.00,VWS V14.00,2013-01-05 12:32:00,
2013-01-05 07:40:00,17.2,15.5,30.39,NNW,333,2.0,3.0,93,0.00,,BKN055,0.00,VWS V14.00,2013-01-05 12:40:00,
2013-01-05 07:42:00,17.2,15.5,30.39,NNW,333,2.0,3.0,93,0.00,,BKN055,0.00,VWS V14.00,2013-01-05 12:42:00,
2013-01-05 07:50:00,17.2,15.5,30.38,NNW,333,2.0,3.0,93,0.00,,BKN055,0.00,VWS V14.00,2013-01-05 12:50:00,
2013-01-05 07:52:00,17.2,15.5,30.38,NNW,333,2.0,3.0,93,0.00,,BKN055,0.00,VWS V14.00,2013-01-05 12:52:00,
2013-01-05 08:00:00,17.1,15.4,30.39,NNW,333,1.0,3.0,93,0.00,,BKN055,0.00,VWS V14.00,2013-01-05 13:00:00,
2013-01-05 08:02:00,17.1,15.4,30.39,NNW,333,1.0,3.0,93,0.00,,BKN055,0.00,VWS V14.00,2013-01-05 13:02:00,
2013-01-05 08:10:00,17.1,15.4,30.39,NNW,333,0.0,1.0,93,0.00,,BKN055,0.00,VWS V14.00,2013-01-05 13:10:00,
2013-01-05 08:12:00,17.1,15.4,30.39,NNW,333,0.0,1.0,93,0.00,,BKN055,0.00,VWS V14.00,2013-01-05 13:12:00,
2013-01-05 08:20:00,17.2,15.5,30.39,NNW,333,0.0,0.0,93,0.00,,BKN055,0.00,VWS V14.00,2013-01-05 13:20:00,
2013-01-05 08:22:00,17.2,15.5,30.39,NNW,333,0.0,0.0,93,0.00,,BKN055,0.00,VWS V14.00,2013-01-05 13:22:00,
2013-01-05 08:30:00,17.2,15.5,30.39,NNW,333,0.0,0.0,93,0.00,,BKN055,0.00,VWS V14.00,2013-01-05 13:30:00,
2013-01-05 08:32:00,17.2,15.5,30.39,NNW,333,0.0,0.0,93,0.00,,BKN055,0.00,VWS V14.00,2013-01-05 13:32:00,
2013-01-05 08:40:00,17.5,16.1,30.39,NNW,333,2.0,3.0,94,0.00,,BKN055,0.00,VWS V14.00,2013-01-05 13:40:00,
2013-01-05 08:42:00,17.5,16.1,30.39,NNW,333,2.0,3.0,94,0.00,,BKN055,0.00,VWS V14.00,2013-01-05 13:42:00,
2013-01-05 08:50:00,18.2,16.8,30.38,NNW,336,2.0,3.0,94,0.00,,BKN055,0.00,VWS V14.00,2013-01-05 13:50:00,
2013-01-05 08:52:00,18.2,16.8,30.38,NNW,336,2.0,3.0,94,0.00,,BKN055,0.00,VWS V14.00,2013-01-05 13:52:00,
2013-01-05 09:00:00,18.9,17.5,30.39,NNW,336,1.0,3.0,94,0.00,,BKN055,0.00,VWS V14.00,2013-01-05 14:00:00,
2013-01-05 09:02:00,18.9,17.5,30.39,NNW,336,1.0,3.0,94,0.00,,BKN055,0.00,VWS V14.00,2013-01-05 14:02:00,
2013-01-05 09:10:00,19.7,18.3,30.39,NNW,336,2.0,3.0,94,0.00,,BKN055,0.00,VWS V14.00,2013-01-05 14:10:00,
2013-01-05 09:12:00,19.7,18.3,30.39,NNW,336,2.0,3.0,94,0.00,,BKN055,0.00,VWS V14.00,2013-01-05 14:12:00,
2013-01-05 09:20:00,20.5,19.0,30.39,NNW,334,2.0,4.0,94,0.00,,BKN055,0.00,VWS V14.00,2013-01-05 14:20:00,
2013-01-05 09:22:00,20.5,19.0,30.39,NNW,334,2.0,4.0,94,0.00,,BKN055,0.00,VWS V14.00,2013-01-05 14:22:00,
2013-01-05 09:30:00,21.8,20.3,30.39,NNW,335,0.0,2.0,94,0.00,,BKN055,0.00,VWS V14.00,2013-01-05 14:30:00,
2013-01-05 09:32:00,21.8,20.3,30.39,NNW,335,0.0,2.0,94,0.00,,BKN055,0.00,VWS V14.00,2013-01-05 14:32:00,
2013-01-05 09:40:00,23.4,22.2,30.39,NNW,334,0.0,0.0,95,0.00,,BKN055,0.00,VWS V14.00,2013-01-05 14:40:00,
2013-01-05 09:42:00,23.4,22.2,30.39,NNW,334,0.0,0.0,95,0.00,,BKN055,0.00,VWS V14.00,2013-01-05 14:42:00,
2013-01-05 09:50:00,25.3,24.1,30.38,NNW,335,0.0,0.0,95,0.00,,BKN055,0.00,VWS V14.00,2013-01-05 14:50:00,
2013-01-05 09:52:00,25.3,24.1,30.38,NNW,335,0.0,0.0,95,0.00,,BKN055,0.00,VWS V14.00,2013-01-05 14:52:00,
2013-01-05 10:00:00,27.7,26.7,30.39,NNW,333,0.0,2.0,96,0.00,,BKN055,0.00,VWS V14.00,2013-01-05 15:00:00,
2013-01-05 10:02:00,27.7,26.7,30.39,NNW,333,0.0,2.0,96,0.00,,BKN055,0.00,VWS V14.00,2013-01-05 15:02:00,
2013-01-05 10:10:00,29.8,28.5,30.38,SSW,209,0.0,1.0,95,0.00,,BKN055,0.00,VWS V14.00,2013-01-05 15:10:00,
2013-01-05 10:12:00,29.8,28.5,30.38,SSW,209,0.0,1.0,95,0.00,,BKN055,0.00,VWS V14.00,2013-01-05 15:12:00,
2013-01-05 10:20:00,32.2,30.1,30.38,SSW,193,0.0,3.0,92,0.00,,BKN055,0.00,VWS V14.00,2013-01-05 15:20:00,
2013-01-05 10:22:00,32.2,30.1,30.38,SSW,193,0.0,3.0,92,0.00,,BKN055,0.00,VWS V14.00,2013-01-05 15:22:00,
2013-01-05 10:30:00,33.7,30.5,30.38,WSW,241,0.0,3.0,88,0.00,,BKN055,0.00,VWS V14.00,2013-01-05 15:30:00,
2013-01-05 10:32:00,33.7,30.5,30.38,WSW,241,0.0,3.0,88,0.00,,BKN055,0.00,VWS V14.00,2013-01-05 15:32:00,
2013-01-05 10:40:00,34.4,30.4,30.38,SW,220,4.0,6.0,85,0.00,,BKN055,0.00,VWS V14.00,2013-01-05 15:40:00,
2013-01-05 10:42:00,34.4,30.4,30.38,SW,220,4.0,6.0,85,0.00,,BKN055,0.00,VWS V14.00,2013-01-05 15:42:00,
2013-01-05 10:50:00,35.4,31.1,30.38,South,186,1.0,5.0,84,0.00,,BKN055,0.00,VWS V14.00,2013-01-05 15:50:00,
2013-01-05 10:52:00,35.4,31.1,30.38,South,186,1.0,5.0,84,0.00,,BKN055,0.00,VWS V14.00,2013-01-05 15:52:00,
2013-01-05 11:00:00,35.5,30.9,30.37,SW,223,0.0,4.0,83,0.00,,BKN055,0.00,VWS V14.00,2013-01-05 16:00:00,
2013-01-05 11:02:00,35.5,30.9,30.37,SW,223,0.0,4.0,83,0.00,,BKN055,0.00,VWS V14.00,2013-01-05 16:02:00,
2013-01-05 11:10:00,35.9,31.0,30.37,WSW,248,2.0,6.0,82,0.00,,BKN055,0.00,VWS V14.00,2013-01-05 16:10:00,
2013-01-05 11:12:00,35.9,31.0,30.37,WSW,248,2.0,6.0,82,0.00,,BKN055,0.00,VWS V14.00,2013-01-05 16:12:00,
2013-01-05 11:20:00,37.0,31.4,30.35,SSW,209,1.0,5.0,80,0.00,,BKN055,0.00,VWS V14.00,2013-01-05 16:20:00,
2013-01-05 11:22:00,37.0,31.4,30.35,SSW,209,1.0,5.0,80,0.00,,BKN055,0.00,VWS V14.00,2013-01-05 16:22:00,
2013-01-05 11:30:00,37.7,31.5,30.36,SSW,207,2.0,6.0,78,0.00,,BKN055,0.00,VWS V14.00,2013-01-05 16:30:00,
2013-01-05 11:32:00,37.7,31.5,30.36,SSW,207,2.0,6.0,78,0.00,,BKN055,0.00,VWS V14.00,2013-01-05 16:32:00,
2013-01-05 11:40:00,38.4,31.8,30.36,SW,217,2.0,6.0,77,0.00,,BKN055,0.00,VWS V14.00,2013-01-05 16:40:00,
2013-01-05 11:42:00,38.4,31.8,30.36,SW,217,2.0,6.0,77,0.00,,BKN055,0.00,VWS V14.00,2013-01-05 16:42:00,
2013-01-05 11:50:00,39.1,31.5,30.35,SW,232,0.0,5.0,74,0.00,,BKN055,0.00,VWS V14.00,2013-01-05 16:50:00,
2013-01-05 11:52:00,39.1,31.5,30.35,SW,232,0.0,5.0,74,0.00,,BKN055,0.00,VWS V14.00,2013-01-05 16:52:00,
2013-01-05 12:00:00,39.1,32.2,30.34,SW,234,0.0,5.0,76,0.00,,BKN055,0.00,VWS V14.00,2013-01-05 17:00:00,
2013-01-05 12:02:00,39.1,32.2,30.34,SW,234,0.0,5.0,76,0.00,,BKN055,0.00,VWS V14.00,2013-01-05 17:02:00,
2013-01-05 12:10:00,39.2,32.0,30.34,SW,230,0.0,4.0,75,0.00,,BKN055,0.00,VWS V14.00,2013-01-05 17:10:00,
2013-01-05 12:12:00,39.2,32.0,30.34,SW,230,0.0,4.0,75,0.00,,BKN055,0.00,VWS V14.00,2013-01-05 17:12:00,
2013-01-05 12:20:00,39.5,31.9,30.33,SW,218,3.0,4.0,74,0.00,,BKN055,0.00,VWS V14.00,2013-01-05 17:20:00,
2013-01-05 12:22:00,39.5,31.9,30.33,SW,218,3.0,4.0,74,0.00,,BKN055,0.00,VWS V14.00,2013-01-05 17:22:00,
2013-01-05 12:30:00,40.2,32.2,30.33,WSW,248,4.0,6.0,73,0.00,,BKN055,0.00,VWS V14.00,2013-01-05 17:30:00,
2013-01-05 12:32:00,40.2,32.2,30.33,WSW,248,4.0,6.0,73,0.00,,BKN055,0.00,VWS V14.00,2013-01-05 17:32:00,
2013-01-05 12:40:00,41.3,32.6,30.32,WSW,245,2.0,6.0,71,0.00,,BKN055,0.00,VWS V14.00,2013-01-05 17:40:00,
2013-01-05 12:42:00,41.3,32.6,30.32,WSW,245,2.0,6.0,71,0.00,,BKN055,0.00,VWS V14.00,2013-01-05 17:42:00,
2013-01-05 12:50:00,41.8,32.0,30.31,SSW,194,5.0,9.0,68,0.00,,BKN055,0.00,VWS V14.00,2013-01-05 17:50:00,
2013-01-05 12:52:00,41.8,32.0,30.31,SSW,194,5.0,9.0,68,0.00,,BKN055,0.00,VWS V14.00,2013-01-05 17:52:00,
2013-01-05 13:00:00,42.4,32.6,30.30,South,182,0.0,10.0,68,0.00,,BKN055,0.00,VWS V14.00,2013-01-05 18:00:00,
2013-01-05 13:02:00,42.4,32.6,30.30,South,182,0.0,10.0,68,0.00,,BKN055,0.00,VWS V14.00,2013-01-05 18:02:00,
2013-01-05 13:10:00,43.6,32.2,30.29,WSW,239,0.0,7.0,64,0.00,,BKN055,0.00,VWS V14.00,2013-01-05 18:10:00,
2013-01-05 13:12:00,43.6,32.2,30.29,WSW,239,0.0,7.0,64,0.00,,BKN055,0.00,VWS V14.00,2013-01-05 18:12:00,
2013-01-05 13:20:00,44.0,31.8,30.28,SW,215,0.0,7.0,62,0.00,,BKN055,0.00,VWS V14.00,2013-01-05 18:20:00,
2013-01-05 13:22:00,44.0,31.8,30.28,SW,215,0.0,7.0,62,0.00,,BKN055,0.00,VWS V14.00,2013-01-05 18:22:00,
2013-01-05 13:30:00,44.1,31.5,30.28,WSW,240,2.0,7.0,61,0.00,,BKN055,0.00,VWS V14.00,2013-01-05 18:30:00,
2013-01-05 13:32:00,44.1,31.5,30.28,WSW,240,2.0,7.0,61,0.00,,BKN055,0.00,VWS V14.00,2013-01-05 18:32:00,
2013-01-05 13:40:00,43.8,32.8,30.26,SSW,206,0.0,5.0,65,0.00,,BKN055,0.00,VWS V14.00,2013-01-05 18:40:00,
2013-01-05 13:42:00,43.8,32.8,30.26,SSW,206,0.0,5.0,65,0.00,,BKN055,0.00,VWS V14.00,2013-01-05 18:42:00,
2013-01-05 13:50:00,44.0,33.0,30.25,SW,223,4.0,6.0,65,0.00,,BKN055,0.00,VWS V14.00,2013-01-05 18:50:00,
2013-01-05 13:52:00,44.0,33.0,30.25,SW,223,4.0,6.0,65,0.00,,BKN055,0.00,VWS V14.00,2013-01-05 18:52:00,
2013-01-05 14:00:00,44.5,32.3,30.25,SSW,195,0.0,4.0,62,0.00,,BKN055,0.00,VWS V14.00,2013-01-05 19:00:00,
2013-01-05 14:02:00,44.5,32.3,30.25,SSW,195,0.0,4.0,62,0.00,,BKN055,0.00,VWS V14.00,2013-01-05 19:02:00,
2013-01-05 14:10:00,45.0,32.0,30.24,SSE,168,0.0,3.0,60,0.00,,BKN055,0.00,VWS V14.00,2013-01-05 19:10:00,
2013-01-05 14:12:00,45.0,32.0,30.24,SSE,168,0.0,3.0,60,0.00,,BKN055,0.00,VWS V14.00,2013-01-05 19:12:00,
2013-01-05 14:20:00,44.8,32.6,30.24,SSW,207,0.0,3.0,62,0.00,,BKN055,0.00,VWS V14.00,2013-01-05 19:20:00,
2013-01-05 14:22:00,44.8,32.6,30.24,SSW,207,0.0,3.0,62,0.00,,BKN055,0.00,VWS V14.00,2013-01-05 19:22:00,
2013-01-05 14:30:00,44.6,32.8,30.24,SSW,196,0.0,3.0,63,0.00,,BKN055,0.00,VWS V14.00,2013-01-05 19:30:00,
2013-01-05 14:32:00,44.6,32.8,30.24,SSW,196,0.0,3.0,63,0.00,,BKN055,0.00,VWS V14.00,2013-01-05 19:32:00,
2013-01-05 14:40:00,44.5,33.1,30.24,SW,219,0.0,3.0,64,0.00,,BKN055,0.00,VWS V14.00,2013-01-05 19:40:00,
2013-01-05 14:42:00,44.5,33.1,30.24,SW,219,0.0,3.0,64,0.00,,BKN055,0.00,VWS V14.00,2013-01-05 19:42:00,
2013-01-05 14:50:00,44.0,32.2,30.24,SSE,161,0.0,6.0,63,0.00,,BKN055,0.00,VWS V14.00,2013-01-05 19:50:00,
2013-01-05 14:52:00,44.0,32.2,30.24,SSE,161,0.0,6.0,63,0.00,,BKN055,0.00,VWS V14.00,2013-01-05 19:52:00,
2013-01-05 15:00:00,43.9,32.1,30.23,SW,227,0.0,3.0,63,0.00,,BKN055,0.00,VWS V14.00,2013-01-05 20:00:00,
2013-01-05 15:02:00,43.9,32.1,30.23,SW,227,0.0,3.0,63,0.00,,BKN055,0.00,VWS V14.00,2013-01-05 20:02:00,
2013-01-05 15:10:00,44.0,33.4,30.23,SW,214,0.0,9.0,66,0.00,,BKN055,0.00,VWS V14.00,2013-01-05 20:10:00,
2013-01-05 15:12:00,44.0,33.4,30.23,SW,214,0.0,9.0,66,0.00,,BKN055,0.00,VWS V14.00,2013-01-05 20:12:00,
2013-01-05 15:20:00,43.9,32.5,30.23,SW,214,0.0,1.0,64,0.00,,BKN055,0.00,VWS V14.00,2013-01-05 20:20:00,
2013-01-05 15:22:00,43.9,32.5,30.23,SW,214,0.0,1.0,64,0.00,,BKN055,0.00,VWS V14.00,2013-01-05 20:22:00,
2013-01-05 15:30:00,43.9,32.9,30.23,WSW,244,2.0,3.0,65,0.00,,BKN055,0.00,VWS V14.00,2013-01-05 20:30:00,
2013-01-05 15:32:00,43.9,32.9,30.23,WSW,244,2.0,3.0,65,0.00,,BKN055,0.00,VWS V14.00,2013-01-05 20:32:00,
2013-01-05 15:40:00,43.6,33.4,30.24,SW,234,0.0,3.0,67,0.00,,BKN055,0.00,VWS V14.00,2013-01-05 20:40:00,
2013-01-05 15:42:00,43.6,33.4,30.24,SW,234,0.0,3.0,67,0.00,,BKN055,0.00,VWS V14.00,2013-01-05 20:42:00,
2013-01-05 15:50:00,43.4,31.7,30.23,SSW,212,0.0,3.0,63,0.00,,BKN055,0.00,VWS V14.00,2013-01-05 20:50:00,
2013-01-05 15:52:00,43.4,31.7,30.23,SSW,212,0.0,3.0,63,0.00,,BKN055,0.00,VWS V14.00,2013-01-05 20:52:00,
2013-01-05 16:00:00,43.1,33.3,30.24,WSW,242,0.0,5.0,68,0.00,,BKN055,0.00,VWS V14.00,2013-01-05 21:00:00,
2013-01-05 16:02:00,43.1,33.3,30.24,WSW,242,0.0,5.0,68,0.00,,BKN055,0.00,VWS V14.00,2013-01-05 21:02:00,
2013-01-05 16:10:00,42.9,32.3,30.24,SW,227,0.0,6.0,66,0.00,,BKN055,0.00,VWS V14.00,2013-01-05 21:10:00,
2013-01-05 16:12:00,42.9,32.3,30.24,SW,227,0.0,6.0,66,0.00,,BKN055,0.00,VWS V14.00,2013-01-05 21:12:00,
2013-01-05 16:20:00,42.8,31.5,30.24,WNW,287,3.0,4.0,64,0.00,,BKN055,0.00,VWS V14.00,2013-01-05 21:20:00,
2013-01-05 16:22:00,42.8,31.5,30.24,WNW,287,3.0,4.0,64,0.00,,BKN055,0.00,VWS V14.00,2013-01-05 21:22:00,
2013-01-05 16:30:00,42.5,30.4,30.25,WSW,257,3.0,7.0,62,0.00,,BKN055,0.00,VWS V14.00,2013-01-05 21:30:00,
2013-01-05 16:32:00,42.5,30.4,30.25,WSW,257,3.0,7.0,62,0.00,,BKN055,0.00,VWS V14.00,2013-01-05 21:32:00,
2013-01-05 16:40:00,42.2,30.9,30.26,West,268,1.0,7.0,64,0.00,,BKN055,0.00,VWS V14.00,2013-01-05 21:40:00,
2013-01-05 16:42:00,42.2,30.9,30.26,West,268,1.0,7.0,64,0.00,,BKN055,0.00,VWS V14.00,2013-01-05 21:42:00,
2013-01-05 16:50:00,41.9,30.6,30.26,West,259,3.0,9.0,64,0.00,,BKN055,0.00,VWS V14.00,2013-01-05 21:50:00,
2013-01-05 16:52:00,41.9,30.6,30.26,West,259,3.0,9.0,64,0.00,,BKN055,0.00,VWS V14.00,2013-01-05 21:52:00,
2013-01-05 17:00:00,41.5,30.6,30.25,West,261,4.0,5.0,65,0.00,,BKN055,0.00,VWS V14.00,2013-01-05 22:00:00,
2013-01-05 17:02:00,41.5,30.6,30.25,West,261,4.0,5.0,65,0.00,,BKN055,0.00,VWS V14.00,2013-01-05 22:02:00,
2013-01-05 17:10:00,41.4,31.3,30.25,West,259,0.0,7.0,67,0.00,,BKN055,0.00,VWS V14.00,2013-01-05 22:10:00,
2013-01-05 17:12:00,41.4,31.3,30.25,West,259,0.0,7.0,67,0.00,,BKN055,0.00,VWS V14.00,2013-01-05 22:12:00,
2013-01-05 17:20:00,41.2,30.7,30.24,WSW,244,0.0,2.0,66,0.00,,BKN055,0.00,VWS V14.00,2013-01-05 22:20:00,
2013-01-05 17:22:00,41.2,30.7,30.24,WSW,244,0.0,2.0,66,0.00,,BKN055,0.00,VWS V14.00,2013-01-05 22:22:00,
2013-01-05 17:30:00,41.0,32.0,30.24,WSW,244,0.0,0.0,70,0.00,,BKN055,0.00,VWS V14.00,2013-01-05 22:30:00,
2013-01-05 17:32:00,41.0,32.0,30.24,WSW,244,0.0,0.0,70,0.00,,BKN055,0.00,VWS V14.00,2013-01-05 22:32:00,
2013-01-05 17:40:00,40.7,32.4,30.23,WSW,244,0.0,0.0,72,0.00,,BKN055,0.00,VWS V14.00,2013-01-05 22:40:00,
2013-01-05 17:42:00,40.7,32.4,30.23,WSW,244,0.0,0.0,72,0.00,,BKN055,0.00,VWS V14.00,2013-01-05 22:42:00,
2013-01-05 17:50:00,40.0,32.7,30.23,WSW,244,0.0,0.0,75,0.00,,BKN055,0.00,VWS V14.00,2013-01-05 22:50:00,
2013-01-05 17:52:00,40.0,32.7,30.23,WSW,244,0.0,0.0,75,0.00,,BKN055,0.00,VWS V14.00,2013-01-05 22:52:00,
2013-01-05 18:00:00,39.2,31.6,30.23,WSW,244,0.0,0.0,74,0.00,,BKN055,0.00,VWS V14.00,2013-01-05 23:00:00,
2013-01-05 18:02:00,39.2,31.6,30.23,WSW,244,0.0,0.0,74,0.00,,BKN055,0.00,VWS V14.00,2013-01-05 23:02:00,
2013-01-05 18:10:00,38.8,32.2,30.24,WSW,244,0.0,0.0,77,0.00,,BKN055,0.00,VWS V14.00,2013-01-05 23:10:00,
2013-01-05 18:12:00,38.8,32.2,30.24,WSW,244,0.0,0.0,77,0.00,,BKN055,0.00,VWS V14.00,2013-01-05 23:12:00,
2013-01-05 18:20:00,38.4,31.5,30.23,SW,229,0.0,3.0,76,0.00,,BKN055,0.00,VWS V14.00,2013-01-05 23:20:00,
2013-01-05 18:22:00,38.4,31.5,30.23,SW,229,0.0,3.0,76,0.00,,BKN055,0.00,VWS V14.00,2013-01-05 23:22:00,
2013-01-05 18:30:00,38.3,32.0,30.23,SW,229,0.0,0.0,78,0.00,,BKN055,0.00,VWS V14.00,2013-01-05 23:30:00,
2013-01-05 18:32:00,38.3,32.0,30.23,SW,229,0.0,0.0,78,0.00,,BKN055,0.00,VWS V14.00,2013-01-05 23:32:00,
2013-01-05 18:40:00,38.0,31.4,30.23,SW,229,0.0,0.0,77,0.00,,BKN055,0.00,VWS V14.00,2013-01-05 23:40:00,
2013-01-05 18:42:00,38.0,31.4,30.23,SW,229,0.0,0.0,77,0.00,,BKN055,0.00,VWS V14.00,2013-01-05 23:42:00,
2013-01-05 18:50:00,38.0,32.1,30.23,SW,229,0.0,0.0,79,0.00,,BKN055,0.00,VWS V14.00,2013-01-05 23:50:00,
2013-01-05 18:52:00,38.0,32.1,30.23,SW,229,0.0,0.0,79,0.00,,BKN055,0.00,VWS V14.00,2013-01-05 23:52:00,
2013-01-05 19:00:00,37.9,31.7,30.23,SW,229,0.0,0.0,78,0.00,,BKN055,0.00,VWS V14.00,2013-01-06 00:00:00,
2013-01-05 19:02:00,37.9,31.7,30.23,SW,229,0.0,0.0,78,0.00,,BKN055,0.00,VWS V14.00,2013-01-06 00:02:00,
2013-01-05 19:10:00,37.4,31.8,30.24,SW,229,0.0,0.0,80,0.00,,BKN055,0.00,VWS V14.00,2013-01-06 00:10:00,
2013-01-05 19:12:00,37.4,31.8,30.24,SW,229,0.0,0.0,80,0.00,,BKN055,0.00,VWS V14.00,2013-01-06 00:12:00,
2013-01-05 19:20:00,36.8,31.2,30.24,SW,229,0.0,0.0,80,0.00,,BKN055,0.00,VWS V14.00,2013-01-06 00:20:00,
2013-01-05 19:22:00,36.8,31.2,30.24,SW,229,0.0,0.0,80,0.00,,BKN055,0.00,VWS V14.00,2013-01-06 00:22:00,
2013-01-05 19:30:00,36.5,30.9,30.24,SW,229,0.0,0.0,80,0.00,,BKN055,0.00,VWS V14.00,2013-01-06 00:30:00,
2013-01-05 19:32:00,36.5,30.9,30.24,SW,229,0.0,0.0,80,0.00,,BKN055,0.00,VWS V14.00,2013-01-06 00:32:00,
2013-01-05 19:40:00,36.5,31.8,30.23,SW,229,0.0,0.0,83,0.00,,BKN055,0.00,VWS V14.00,2013-01-06 00:40:00,
2013-01-05 19:42:00,36.5,31.8,30.23,SW,229,0.0,0.0,83,0.00,,BKN055,0.00,VWS V14.00,2013-01-06 00:42:00,
2013-01-05 19:50:00,36.1,31.7,30.23,SW,229,0.0,0.0,84,0.00,,BKN055,0.00,VWS V14.00,2013-01-06 00:50:00,
2013-01-05 19:52:00,36.1,31.7,30.23,SW,229,0.0,0.0,84,0.00,,BKN055,0.00,VWS V14.00,2013-01-06 00:52:00,
2013-01-05 20:00:00,35.6,31.2,30.23,SW,229,0.0,0.0,84,0.00,,BKN055,0.00,VWS V14.00,2013-01-06 01:00:00,
2013-01-05 20:02:00,35.6,31.2,30.23,SW,229,0.0,0.0,84,0.00,,BKN055,0.00,VWS V14.00,2013-01-06 01:02:00,
2013-01-05 20:10:00,34.5,30.5,30.23,SW,229,0.0,0.0,85,0.00,,BKN055,0.00,VWS V14.00,2013-01-06 01:10:00,
2013-01-05 20:12:00,34.5,30.5,30.23,SW,229,0.0,0.0,85,0.00,,BKN055,0.00,VWS V14.00,2013-01-06 01:12:00,
2013-01-05 20:20:00,34.4,30.4,30.23,SW,229,0.0,0.0,85,0.00,,BKN055,0.00,VWS V14.00,2013-01-06 01:20:00,
2013-01-05 20:22:00,34.4,30.4,30.23,SW,229,0.0,0.0,85,0.00,,BKN055,0.00,VWS V14.00,2013-01-06 01:22:00,
2013-01-05 20:30:00,33.6,29.6,30.23,SW,229,0.0,2.0,85,0.00,,BKN055,0.00,VWS V14.00,2013-01-06 01:30:00,
2013-01-05 20:32:00,33.6,29.6,30.23,SW,229,0.0,2.0,85,0.00,,BKN055,0.00,VWS V14.00,2013-01-06 01:32:00,
2013-01-05 20:40:00,32.9,29.2,30.23,SW,229,0.0,0.0,86,0.00,,BKN055,0.00,VWS V14.00,2013-01-06 01:40:00,
2013-01-05 20:42:00,32.9,29.2,30.23,SW,229,0.0,0.0,86,0.00,,BKN055,0.00,VWS V14.00,2013-01-06 01:42:00,
2013-01-05 20:50:00,32.9,29.7,30.23,SW,236,1.0,2.0,88,0.00,,BKN055,0.00,VWS V14.00,2013-01-06 01:50:00,
2013-01-05 20:52:00,32.9,29.7,30.23,SW,236,1.0,2.0,88,0.00,,BKN055,0.00,VWS V14.00,2013-01-06 01:52:00,
2013-01-05 21:00:00,32.7,29.5,30.23,SW,236,0.0,1.0,88,0.00,,BKN055,0.00,VWS V14.00,2013-01-06 02:00:00,
2013-01-05 21:02:00,32.7,29.5,30.23,SW,236,0.0,1.0,88,0.00,,BKN055,0.00,VWS V14.00,2013-01-06 02:02:00,
2013-01-05 21:10:00,32.9,30.0,30.23,SW,236,0.0,0.0,89,0.00,,BKN055,0.00,VWS V14.00,2013-01-06 02:10:00,
2013-01-05 21:12:00,32.9,30.0,30.23,SW,236,0.0,0.0,89,0.00,,BKN055,0.00,VWS V14.00,2013-01-06 02:12:00,
2013-01-05 21:20:00,32.9,30.0,30.23,SW,236,0.0,0.0,89,0.00,,BKN055,0.00,VWS V14.00,2013-01-06 02:20:00,
2013-01-05 21:22:00,32.9,30.0,30.23,SW,236,0.0,0.0,89,0.00,,BKN055,0.00,VWS V14.00,2013-01-06 02:22:00,
2013-01-05 21:30:00,32.8,29.9,30.23,SW,236,1.0,2.0,89,0.00,,BKN055,0.00,VWS V14.00,2013-01-06 02:30:00,
2013-01-05 21:32:00,32.8,29.9,30.23,SW,236,1.0,2.0,89,0.00,,BKN055,0.00,VWS V14.00,2013-01-06 02:32:00,
2013-01-05 21:40:00,32.5,29.9,30.23,SW,236,0.0,1.0,90,0.00,,BKN055,0.00,VWS V14.00,2013-01-06 02:40:00,
2013-01-05 21:42:00,32.5,29.9,30.23,SW,236,0.0,1.0,90,0.00,,BKN055,0.00,VWS V14.00,2013-01-06 02:42:00,
2013-01-05 21:50:00,32.2,29.6,30.22,SW,236,0.0,0.0,90,0.00,,BKN055,0.00,VWS V14.00,2013-01-06 02:50:00,
2013-01-05 21:52:00,32.2,29.6,30.22,SW,236,0.0,0.0,90,0.00,,BKN055,0.00,VWS V14.00,2013-01-06 02:52:00,
2013-01-05 22:00:00,32.0,29.4,30.22,SW,236,0.0,0.0,90,0.00,,BKN055,0.00,VWS V14.00,2013-01-06 03:00:00,
2013-01-05 22:02:00,32.0,29.4,30.22,SW,236,0.0,0.0,90,0.00,,BKN055,0.00,VWS V14.00,2013-01-06 03:02:00,
2013-01-05 22:10:00,31.9,29.6,30.22,SW,236,0.0,0.0,91,0.00,,BKN055,0.00,VWS V14.00,2013-01-06 03:10:00,
2013-01-05 22:12:00,31.9,29.6,30.22,SW,236,0.0,0.0,91,0.00,,BKN055,0.00,VWS V14.00,2013-01-06 03:12:00,
2013-01-05 22:20:00,31.7,29.4,30.22,SW,236,0.0,0.0,91,0.00,,BKN055,0.00,VWS V14.00,2013-01-06 03:20:00,
2013-01-05 22:22:00,31.7,29.4,30.22,SW,236,0.0,0.0,91,0.00,,BKN055,0.00,VWS V14.00,2013-01-06 03:22:00,
2013-01-05 22:30:00,31.7,29.4,30.22,SW,236,0.0,0.0,91,0.00,,BKN055,0.00,VWS V14.00,2013-01-06 03:30:00,
2013-01-05 22:32:00,31.7,29.4,30.22,SW,236,0.0,0.0,91,0.00,,BKN055,0.00,VWS V14.00,2013-01-06 03:32:00,
2013-01-05 22:40:00,31.6,29.3,30.21,SW,236,0.0,0.0,91,0.00,,BKN055,0.00,VWS V14.00,2013-01-06 03:40:00,
2013-01-05 22:42:00,31.6,29.3,30.21,SW,236,0.0,0.0,91,0.00,,BKN055,0.00,VWS V14.00,2013-01-06 03:42:00,
2013-01-05 22:50:00,31.4,29.1,30.21,SW,236,0.0,0.0,91,0.00,,BKN055,0.00,VWS V14.00,2013-01-06 03:50:00,
2013-01-05 22:52:00,31.4,29.1,30.21,SW,236,0.0,0.0,91,0.00,,BKN055,0.00,VWS V14.00,2013-01-06 03:52:00,
2013-01-05 23:00:00,31.3,29.2,30.21,WSW,239,1.0,2.0,92,0.00,,BKN055,0.00,VWS V14.00,2013-01-06 04:00:00,
2013-01-05 23:02:00,31.3,29.2,30.21,WSW,239,1.0,2.0,92,0.00,,BKN055,0.00,VWS V14.00,2013-01-06 04:02:00,
2013-01-05 23:10:00,31.0,29.0,30.21,WNW,290,0.0,3.0,92,0.00,,BKN055,0.00,VWS V14.00,2013-01-06 04:10:00,
2013-01-05 23:12:00,31.0,29.0,30.21,WNW,290,0.0,3.0,92,0.00,,BKN055,0.00,VWS V14.00,2013-01-06 04:12:00,
2013-01-05 23:20:00,30.9,28.9,30.20,WNW,290,0.0,0.0,92,0.00,,BKN055,0.00,VWS V14.00,2013-01-06 04:20:00,
2013-01-05 23:22:00,30.9,28.9,30.20,WNW,290,0.0,0.0,92,0.00,,BKN055,0.00,VWS V14.00,2013-01-06 04:22:00,
2013-01-05 23:30:00,30.7,28.7,30.20,WNW,290,0.0,0.0,92,0.00,,BKN055,0.00,VWS V14.00,2013-01-06 04:30:00,
2013-01-05 23:32:00,30.7,28.7,30.20,WNW,290,0.0,0.0,92,0.00,,BKN055,0.00,VWS V14.00,2013-01-06 04:32:00,
2013-01-05 23:40:00,30.7,28.9,30.20,WNW,290,0.0,0.0,93,0.00,,BKN055,0.00,VWS V14.00,2013-01-06 04:40:00,
2013-01-05 23:42:00,30.7,28.9,30.20,WNW,290,0.0,0.0,93,0.00,,BKN055,0.00,VWS V14.00,2013-01-06 04:42:00,
2013-01-05 23:50:00,30.4,28.4,30.19,WNW,290,0.0,0.0,92,0.00,,BKN055,0.00,VWS V14.00,2013-01-06 04:50:00,
2013-01-05 23:52:00,30.4,28.4,30.19,WNW,290,0.0,0.0,92,0.00,,BKN055,0.00,VWS V14.00,2013-01-06 04:52:00,